sensor_id;sensor_type;location;lat;lon;timestamp;pressure;altitude;pressure_sealevel;temperature;humidity
12468;BME280;57850;52.922;6.256;2023-05-22T00:00:20;101555.84;;;20.45;100.00
12468;BME280;57850;52.922;6.256;2023-05-22T00:02:46;101577.09;;;20.58;100.00
12468;BME280;57850;52.922;6.256;2023-05-22T00:05:14;101564.84;;;20.55;100.00
12468;BME280;57850;52.922;6.256;2023-05-22T00:07:43;101567.09;;;20.61;100.00
12468;BME280;57850;52.922;6.256;2023-05-22T00:10:11;101557.31;;;20.08;100.00
12468;BME280;57850;52.922;6.256;2023-05-22T00:12:37;101525.69;;;20.19;100.00
12468;BME280;57850;52.922;6.256;2023-05-22T00:15:05;101523.84;;;20.07;100.00
12468;BME280;57850;52.922;6.256;2023-05-22T00:17:31;101487.00;;;20.17;100.00
12468;BME280;57850;52.922;6.256;2023-05-22T00:19:58;101468.63;;;19.60;100.00
12468;BME280;57850;52.922;6.256;2023-05-22T00:22:32;101371.31;;;19.64;100.00
12468;BME280;57850;52.922;6.256;2023-05-22T00:25:01;101347.66;;;19.61;100.00
12468;BME280;57850;52.922;6.256;2023-05-22T00:27:28;101288.19;;;19.66;100.00
12468;BME280;57850;52.922;6.256;2023-05-22T00:29:55;101272.84;;;19.84;100.00
12468;BME280;57850;52.922;6.256;2023-05-22T00:32:21;101226.97;;;20.09;100.00
12468;BME280;57850;52.922;6.256;2023-05-22T00:34:48;101219.16;;;19.95;100.00
12468;BME280;57850;52.922;6.256;2023-05-22T00:37:14;101163.09;;;20.01;100.00
12468;BME280;57850;52.922;6.256;2023-05-22T00:39:41;101130.75;;;19.96;100.00
12468;BME280;57850;52.922;6.256;2023-05-22T00:42:09;101116.47;;;19.98;100.00
12468;BME280;57850;52.922;6.256;2023-05-22T00:44:35;101121.47;;;19.77;100.00
12468;BME280;57850;52.922;6.256;2023-05-22T00:47:02;101104.91;;;19.87;100.00
12468;BME280;57850;52.922;6.256;2023-05-22T00:49:28;101123.38;;;19.75;100.00
12468;BME280;57850;52.922;6.256;2023-05-22T00:51:55;101093.47;;;19.73;100.00
12468;BME280;57850;52.922;6.256;2023-05-22T00:54:22;101102.06;;;19.90;100.00
12468;BME280;57850;52.922;6.256;2023-05-22T00:56:49;101049.84;;;19.92;100.00
12468;BME280;57850;52.922;6.256;2023-05-22T00:59:17;100992.00;;;19.86;100.00
12468;BME280;57850;52.922;6.256;2023-05-22T01:01:45;100901.34;;;19.82;100.00
12468;BME280;57850;52.922;6.256;2023-05-22T01:04:11;100896.31;;;19.66;100.00
12468;BME280;57850;52.922;6.256;2023-05-22T01:06:39;100816.97;;;19.89;100.00
12468;BME280;57850;52.922;6.256;2023-05-22T01:09:06;100872.44;;;19.79;100.00
12468;BME280;57850;52.922;6.256;2023-05-22T01:11:37;100888.25;;;19.68;100.00
12468;BME280;57850;52.922;6.256;2023-05-22T01:14:08;100843.22;;;19.92;100.00
12468;BME280;57850;52.922;6.256;2023-05-22T01:16:47;100828.53;;;19.99;100.00
12468;BME280;57850;52.922;6.256;2023-05-22T01:19:28;100895.19;;;19.82;100.00
12468;BME280;57850;52.922;6.256;2023-05-22T01:22:06;100898.72;;;19.93;100.00
12468;BME280;57850;52.922;6.256;2023-05-22T01:24:56;100894.50;;;19.91;100.00
12468;BME280;57850;52.922;6.256;2023-05-22T01:27:41;100905.31;;;19.88;100.00
12468;BME280;57850;52.922;6.256;2023-05-22T01:30:40;100868.25;;;19.88;100.00
12468;BME280;57850;52.922;6.256;2023-05-22T01:33:08;100880.03;;;19.84;100.00
12468;BME280;57850;52.922;6.256;2023-05-22T01:35:39;100870.56;;;19.92;100.00
12468;BME280;57850;52.922;6.256;2023-05-22T01:38:07;100850.09;;;19.94;100.00
12468;BME280;57850;52.922;6.256;2023-05-22T01:40:34;100831.19;;;19.99;100.00
12468;BME280;57850;52.922;6.256;2023-05-22T01:43:01;100843.09;;;19.93;100.00
12468;BME280;57850;52.922;6.256;2023-05-22T01:45:28;100863.13;;;19.97;100.00
12468;BME280;57850;52.922;6.256;2023-05-22T01:47:57;100896.94;;;19.94;100.00
12468;BME280;57850;52.922;6.256;2023-05-22T01:50:24;100895.00;;;19.96;100.00
12468;BME280;57850;52.922;6.256;2023-05-22T01:52:57;100900.66;;;19.91;100.00
12468;BME280;57850;52.922;6.256;2023-05-22T01:55:28;100927.25;;;19.90;100.00
12468;BME280;57850;52.922;6.256;2023-05-22T01:58:09;100929.72;;;19.80;100.00
12468;BME280;57850;52.922;6.256;2023-05-22T02:00:37;100922.34;;;19.72;100.00
12468;BME280;57850;52.922;6.256;2023-05-22T02:03:13;100900.41;;;19.70;100.00
12468;BME280;57850;52.922;6.256;2023-05-22T02:05:42;100897.25;;;19.65;100.00
12468;BME280;57850;52.922;6.256;2023-05-22T02:08:10;100901.03;;;19.50;100.00
12468;BME280;57850;52.922;6.256;2023-05-22T02:10:37;100837.78;;;19.58;100.00
12468;BME280;57850;52.922;6.256;2023-05-22T02:13:05;100844.22;;;19.67;100.00
12468;BME280;57850;52.922;6.256;2023-05-22T02:15:32;100857.94;;;19.72;100.00
12468;BME280;57850;52.922;6.256;2023-05-22T02:17:59;100882.91;;;19.81;100.00
12468;BME280;57850;52.922;6.256;2023-05-22T02:20:28;100895.13;;;19.70;100.00
12468;BME280;57850;52.922;6.256;2023-05-22T02:22:54;100898.22;;;19.64;100.00
12468;BME280;57850;52.922;6.256;2023-05-22T02:25:21;100912.44;;;19.63;100.00
12468;BME280;57850;52.922;6.256;2023-05-22T02:27:47;100884.97;;;19.64;100.00
12468;BME280;57850;52.922;6.256;2023-05-22T02:30:14;100871.88;;;19.63;100.00
12468;BME280;57850;52.922;6.256;2023-05-22T02:32:42;100891.66;;;19.70;100.00
12468;BME280;57850;52.922;6.256;2023-05-22T02:35:09;100924.00;;;19.73;100.00
12468;BME280;57850;52.922;6.256;2023-05-22T02:37:37;100923.06;;;19.74;100.00
12468;BME280;57850;52.922;6.256;2023-05-22T02:40:04;100936.09;;;19.77;100.00
12468;BME280;57850;52.922;6.256;2023-05-22T02:42:31;100942.50;;;19.62;100.00
12468;BME280;57850;52.922;6.256;2023-05-22T02:44:58;100915.19;;;19.62;100.00
12468;BME280;57850;52.922;6.256;2023-05-22T02:47:24;100915.56;;;19.68;100.00
12468;BME280;57850;52.922;6.256;2023-05-22T02:49:51;100928.81;;;19.68;100.00
12468;BME280;57850;52.922;6.256;2023-05-22T02:52:17;100929.53;;;19.70;100.00
12468;BME280;57850;52.922;6.256;2023-05-22T02:54:45;100942.47;;;19.75;100.00
12468;BME280;57850;52.922;6.256;2023-05-22T02:57:12;100947.56;;;19.65;100.00
12468;BME280;57850;52.922;6.256;2023-05-22T02:59:38;100956.66;;;19.74;100.00
12468;BME280;57850;52.922;6.256;2023-05-22T03:02:05;100968.13;;;19.62;100.00
12468;BME280;57850;52.922;6.256;2023-05-22T03:04:31;100951.91;;;19.66;100.00
12468;BME280;57850;52.922;6.256;2023-05-22T03:06:58;100962.38;;;19.68;100.00
12468;BME280;57850;52.922;6.256;2023-05-22T03:09:25;100990.59;;;19.56;100.00
12468;BME280;57850;52.922;6.256;2023-05-22T03:11:53;100969.63;;;19.53;100.00
12468;BME280;57850;52.922;6.256;2023-05-22T03:14:20;100958.16;;;19.65;100.00
12468;BME280;57850;52.922;6.256;2023-05-22T03:16:46;100983.38;;;19.58;100.00
12468;BME280;57850;52.922;6.256;2023-05-22T03:19:13;100984.34;;;19.57;100.00
12468;BME280;57850;52.922;6.256;2023-05-22T03:21:40;100977.00;;;19.61;100.00
12468;BME280;57850;52.922;6.256;2023-05-22T03:24:08;100966.31;;;19.62;100.00
12468;BME280;57850;52.922;6.256;2023-05-22T03:26:35;100946.09;;;19.61;100.00
12468;BME280;57850;52.922;6.256;2023-05-22T03:29:03;100960.81;;;19.65;100.00
12468;BME280;57850;52.922;6.256;2023-05-22T03:31:32;100973.31;;;19.63;100.00
12468;BME280;57850;52.922;6.256;2023-05-22T03:33:59;100971.41;;;19.65;100.00
12468;BME280;57850;52.922;6.256;2023-05-22T03:36:26;100974.28;;;19.62;100.00
12468;BME280;57850;52.922;6.256;2023-05-22T03:38:52;100959.22;;;19.63;100.00
12468;BME280;57850;52.922;6.256;2023-05-22T03:41:19;100965.59;;;19.60;100.00
12468;BME280;57850;52.922;6.256;2023-05-22T03:43:45;100964.53;;;19.63;100.00
12468;BME280;57850;52.922;6.256;2023-05-22T03:46:13;100971.22;;;19.56;100.00
12468;BME280;57850;52.922;6.256;2023-05-22T03:48:39;100957.97;;;19.56;100.00
12468;BME280;57850;52.922;6.256;2023-05-22T03:51:06;100958.59;;;19.59;100.00
12468;BME280;57850;52.922;6.256;2023-05-22T03:53:32;100945.06;;;19.64;100.00
12468;BME280;57850;52.922;6.256;2023-05-22T03:55:59;100933.38;;;19.66;100.00
12468;BME280;57850;52.922;6.256;2023-05-22T03:58:26;100954.00;;;19.74;100.00
12468;BME280;57850;52.922;6.256;2023-05-22T04:00:52;100975.63;;;19.68;100.00
12468;BME280;57850;52.922;6.256;2023-05-22T04:03:21;100973.72;;;19.70;100.00
12468;BME280;57850;52.922;6.256;2023-05-22T04:05:47;100980.06;;;19.67;100.00
12468;BME280;57850;52.922;6.256;2023-05-22T04:08:14;100985.72;;;19.63;100.00
12468;BME280;57850;52.922;6.256;2023-05-22T04:10:40;100977.22;;;19.58;100.00
12468;BME280;57850;52.922;6.256;2023-05-22T04:13:10;100966.88;;;19.42;100.00
12468;BME280;57850;52.922;6.256;2023-05-22T04:15:37;100926.66;;;19.24;100.00
12468;BME280;57850;52.922;6.256;2023-05-22T04:18:06;100901.69;;;19.41;100.00
12468;BME280;57850;52.922;6.256;2023-05-22T04:20:34;100915.97;;;19.51;100.00
12468;BME280;57850;52.922;6.256;2023-05-22T04:23:00;100933.88;;;19.48;100.00
12468;BME280;57850;52.922;6.256;2023-05-22T04:25:27;100939.59;;;19.42;100.00
12468;BME280;57850;52.922;6.256;2023-05-22T04:27:54;100956.63;;;19.50;100.00
12468;BME280;57850;52.922;6.256;2023-05-22T04:30:20;100964.78;;;19.47;100.00
12468;BME280;57850;52.922;6.256;2023-05-22T04:32:49;100970.06;;;19.35;100.00
12468;BME280;57850;52.922;6.256;2023-05-22T04:35:16;100967.75;;;19.43;100.00
12468;BME280;57850;52.922;6.256;2023-05-22T04:37:45;100959.06;;;19.28;100.00
12468;BME280;57850;52.922;6.256;2023-05-22T04:40:11;100964.13;;;19.31;100.00
12468;BME280;57850;52.922;6.256;2023-05-22T04:42:40;100964.34;;;19.28;100.00
12468;BME280;57850;52.922;6.256;2023-05-22T04:45:07;100957.56;;;19.24;100.00
12468;BME280;57850;52.922;6.256;2023-05-22T04:47:34;100966.06;;;19.16;100.00
12468;BME280;57850;52.922;6.256;2023-05-22T04:50:03;100948.97;;;19.33;100.00
12468;BME280;57850;52.922;6.256;2023-05-22T04:52:29;100966.28;;;19.26;100.00
12468;BME280;57850;52.922;6.256;2023-05-22T04:54:57;100956.72;;;19.23;100.00
12468;BME280;57850;52.922;6.256;2023-05-22T04:57:24;100962.78;;;19.25;100.00
12468;BME280;57850;52.922;6.256;2023-05-22T04:59:52;100978.94;;;19.21;100.00
12468;BME280;57850;52.922;6.256;2023-05-22T05:02:18;100975.66;;;19.30;100.00
12468;BME280;57850;52.922;6.256;2023-05-22T05:04:45;100982.16;;;19.26;100.00
12468;BME280;57850;52.922;6.256;2023-05-22T05:07:12;100992.31;;;19.45;100.00
12468;BME280;57850;52.922;6.256;2023-05-22T05:09:42;101028.81;;;19.52;100.00
12468;BME280;57850;52.922;6.256;2023-05-22T05:12:10;101059.63;;;19.53;100.00
12468;BME280;57850;52.922;6.256;2023-05-22T05:14:37;101048.00;;;19.43;100.00
12468;BME280;57850;52.922;6.256;2023-05-22T05:17:04;101047.78;;;19.46;100.00
12468;BME280;57850;52.922;6.256;2023-05-22T05:19:30;101045.13;;;19.46;100.00
12468;BME280;57850;52.922;6.256;2023-05-22T05:21:57;101048.72;;;19.45;100.00
12468;BME280;57850;52.922;6.256;2023-05-22T05:24:23;101050.13;;;19.51;100.00
12468;BME280;57850;52.922;6.256;2023-05-22T05:26:50;101058.47;;;19.57;100.00
12468;BME280;57850;52.922;6.256;2023-05-22T05:29:18;101047.75;;;19.59;100.00
12468;BME280;57850;52.922;6.256;2023-05-22T05:31:45;101082.41;;;19.56;100.00
12468;BME280;57850;52.922;6.256;2023-05-22T05:34:11;101075.19;;;19.58;100.00
12468;BME280;57850;52.922;6.256;2023-05-22T05:36:38;101061.94;;;19.58;100.00
12468;BME280;57850;52.922;6.256;2023-05-22T05:39:05;101074.03;;;19.62;100.00
12468;BME280;57850;52.922;6.256;2023-05-22T05:41:32;101089.03;;;19.74;100.00
12468;BME280;57850;52.922;6.256;2023-05-22T05:43:59;101109.94;;;19.66;100.00
12468;BME280;57850;52.922;6.256;2023-05-22T05:46:27;101081.03;;;19.50;100.00
12468;BME280;57850;52.922;6.256;2023-05-22T05:48:53;101061.41;;;19.65;100.00
12468;BME280;57850;52.922;6.256;2023-05-22T05:51:20;101084.16;;;19.81;100.00
12468;BME280;57850;52.922;6.256;2023-05-22T05:53:48;101099.19;;;19.80;100.00
12468;BME280;57850;52.922;6.256;2023-05-22T05:56:15;101094.91;;;19.66;100.00
12468;BME280;57850;52.922;6.256;2023-05-22T05:58:41;101109.06;;;19.91;100.00
12468;BME280;57850;52.922;6.256;2023-05-22T06:01:08;101129.16;;;19.93;100.00
12468;BME280;57850;52.922;6.256;2023-05-22T06:03:37;101136.06;;;19.96;100.00
12468;BME280;57850;52.922;6.256;2023-05-22T06:06:04;101145.19;;;19.92;100.00
12468;BME280;57850;52.922;6.256;2023-05-22T06:08:31;101159.47;;;20.02;100.00
12468;BME280;57850;52.922;6.256;2023-05-22T06:10:58;101175.28;;;19.78;100.00
12468;BME280;57850;52.922;6.256;2023-05-22T06:13:25;101168.28;;;19.90;100.00
12468;BME280;57850;52.922;6.256;2023-05-22T06:15:52;101197.75;;;19.85;100.00
12468;BME280;57850;52.922;6.256;2023-05-22T06:18:18;101216.59;;;19.81;100.00
12468;BME280;57850;52.922;6.256;2023-05-22T06:20:46;101215.72;;;19.67;100.00
12468;BME280;57850;52.922;6.256;2023-05-22T06:23:13;101217.66;;;19.78;100.00
12468;BME280;57850;52.922;6.256;2023-05-22T06:25:39;101231.00;;;19.76;100.00
12468;BME280;57850;52.922;6.256;2023-05-22T06:28:06;101256.09;;;19.84;100.00
12468;BME280;57850;52.922;6.256;2023-05-22T06:30:32;101292.50;;;19.67;100.00
12468;BME280;57850;52.922;6.256;2023-05-22T06:32:59;101309.19;;;19.82;100.00
12468;BME280;57850;52.922;6.256;2023-05-22T06:35:25;101342.63;;;20.10;100.00
12468;BME280;57850;52.922;6.256;2023-05-22T06:37:53;101355.56;;;19.75;100.00
12468;BME280;57850;52.922;6.256;2023-05-22T06:40:20;101377.03;;;19.70;100.00
12468;BME280;57850;52.922;6.256;2023-05-22T06:42:46;101386.28;;;19.77;100.00
12468;BME280;57850;52.922;6.256;2023-05-22T06:45:13;101405.53;;;19.94;100.00
12468;BME280;57850;52.922;6.256;2023-05-22T06:47:41;101436.41;;;19.81;100.00
12468;BME280;57850;52.922;6.256;2023-05-22T06:50:08;101450.16;;;20.26;100.00
12468;BME280;57850;52.922;6.256;2023-05-22T06:52:35;101482.19;;;20.36;100.00
12468;BME280;57850;52.922;6.256;2023-05-22T06:55:05;101497.16;;;20.37;100.00
12468;BME280;57850;52.922;6.256;2023-05-22T06:57:32;101500.91;;;20.47;100.00
12468;BME280;57850;52.922;6.256;2023-05-22T06:59:59;101507.13;;;20.46;100.00
12468;BME280;57850;52.922;6.256;2023-05-22T07:02:25;101502.75;;;20.72;100.00
12468;BME280;57850;52.922;6.256;2023-05-22T07:04:52;101520.81;;;20.79;100.00
12468;BME280;57850;52.922;6.256;2023-05-22T07:07:18;101531.41;;;20.79;100.00
12468;BME280;57850;52.922;6.256;2023-05-22T07:09:45;101545.00;;;20.88;100.00
12468;BME280;57850;52.922;6.256;2023-05-22T07:12:13;101563.84;;;20.58;100.00
12468;BME280;57850;52.922;6.256;2023-05-22T07:14:39;101561.06;;;20.59;100.00
12468;BME280;57850;52.922;6.256;2023-05-22T07:17:06;101548.56;;;20.74;100.00
12468;BME280;57850;52.922;6.256;2023-05-22T07:19:33;101559.53;;;20.82;100.00
12468;BME280;57850;52.922;6.256;2023-05-22T07:22:00;101586.78;;;20.71;100.00
12468;BME280;57850;52.922;6.256;2023-05-22T07:24:26;101590.72;;;20.78;100.00
12468;BME280;57850;52.922;6.256;2023-05-22T07:26:53;101572.03;;;20.80;100.00
12468;BME280;57850;52.922;6.256;2023-05-22T07:29:21;101589.63;;;20.68;100.00
12468;BME280;57850;52.922;6.256;2023-05-22T07:31:47;101602.03;;;20.68;100.00
12468;BME280;57850;52.922;6.256;2023-05-22T07:34:15;101595.16;;;20.39;100.00
12468;BME280;57850;52.922;6.256;2023-05-22T07:36:42;101598.88;;;20.49;100.00
12468;BME280;57850;52.922;6.256;2023-05-22T07:39:08;101600.72;;;20.48;100.00
12468;BME280;57850;52.922;6.256;2023-05-22T07:41:35;101587.69;;;20.58;100.00
12468;BME280;57850;52.922;6.256;2023-05-22T07:44:01;101606.94;;;20.74;100.00
12468;BME280;57850;52.922;6.256;2023-05-22T07:46:29;101621.00;;;20.62;100.00
12468;BME280;57850;52.922;6.256;2023-05-22T07:48:56;101625.19;;;20.39;100.00
12468;BME280;57850;52.922;6.256;2023-05-22T07:51:23;101621.06;;;20.48;100.00
12468;BME280;57850;52.922;6.256;2023-05-22T07:53:49;101638.13;;;20.70;100.00
12468;BME280;57850;52.922;6.256;2023-05-22T07:56:16;101653.97;;;20.84;100.00
12468;BME280;57850;52.922;6.256;2023-05-22T07:58:42;101661.53;;;20.91;100.00
12468;BME280;57850;52.922;6.256;2023-05-22T08:01:12;101667.69;;;21.30;100.00
12468;BME280;57850;52.922;6.256;2023-05-22T08:03:41;101679.97;;;21.46;100.00
12468;BME280;57850;52.922;6.256;2023-05-22T08:06:07;101683.53;;;21.19;100.00
12468;BME280;57850;52.922;6.256;2023-05-22T08:08:34;101693.97;;;21.35;100.00
12468;BME280;57850;52.922;6.256;2023-05-22T08:11:00;101712.56;;;21.48;100.00
12468;BME280;57850;52.922;6.256;2023-05-22T08:13:27;101715.53;;;21.43;100.00
12468;BME280;57850;52.922;6.256;2023-05-22T08:15:54;101716.22;;;21.84;100.00
12468;BME280;57850;52.922;6.256;2023-05-22T08:18:20;101716.00;;;21.87;100.00
12468;BME280;57850;52.922;6.256;2023-05-22T08:20:48;101726.56;;;22.02;100.00
12468;BME280;57850;52.922;6.256;2023-05-22T08:23:17;101742.28;;;22.17;100.00
12468;BME280;57850;52.922;6.256;2023-05-22T08:25:44;101742.31;;;22.66;100.00
12468;BME280;57850;52.922;6.256;2023-05-22T08:28:10;101759.38;;;22.87;100.00
12468;BME280;57850;52.922;6.256;2023-05-22T08:30:37;101761.72;;;23.16;100.00
12468;BME280;57850;52.922;6.256;2023-05-22T08:33:03;101769.25;;;23.22;100.00
12468;BME280;57850;52.922;6.256;2023-05-22T08:35:30;101760.94;;;23.50;100.00
12468;BME280;57850;52.922;6.256;2023-05-22T08:37:58;101775.25;;;23.60;100.00
12468;BME280;57850;52.922;6.256;2023-05-22T08:40:32;101772.09;;;23.90;100.00
12468;BME280;57850;52.922;6.256;2023-05-22T08:43:00;101778.81;;;24.40;100.00
12468;BME280;57850;52.922;6.256;2023-05-22T08:45:26;101791.69;;;23.89;100.00
12468;BME280;57850;52.922;6.256;2023-05-22T08:47:58;101776.00;;;24.64;100.00
12468;BME280;57850;52.922;6.256;2023-05-22T08:50:29;101769.28;;;25.02;100.00
12468;BME280;57850;52.922;6.256;2023-05-22T08:52:59;101776.66;;;25.10;100.00
12468;BME280;57850;52.922;6.256;2023-05-22T08:55:27;101778.03;;;25.04;100.00
12468;BME280;57850;52.922;6.256;2023-05-22T08:57:55;101773.63;;;25.15;100.00
12468;BME280;57850;52.922;6.256;2023-05-22T09:00:22;101772.09;;;25.33;100.00
12468;BME280;57850;52.922;6.256;2023-05-22T09:02:49;101752.94;;;25.48;100.00
12468;BME280;57850;52.922;6.256;2023-05-22T09:05:16;101738.81;;;25.99;100.00
12468;BME280;57850;52.922;6.256;2023-05-22T09:07:43;101737.13;;;26.19;100.00
12468;BME280;57850;52.922;6.256;2023-05-22T09:10:11;101724.38;;;26.41;100.00
12468;BME280;57850;52.922;6.256;2023-05-22T09:12:37;101739.94;;;25.96;100.00
12468;BME280;57850;52.922;6.256;2023-05-22T09:15:08;101730.22;;;26.26;100.00
12468;BME280;57850;52.922;6.256;2023-05-22T09:17:38;101716.00;;;26.65;100.00
12468;BME280;57850;52.922;6.256;2023-05-22T09:20:05;101721.34;;;26.16;100.00
12468;BME280;57850;52.922;6.256;2023-05-22T09:22:34;101720.25;;;26.28;100.00
12468;BME280;57850;52.922;6.256;2023-05-22T09:25:02;101705.63;;;26.41;100.00
12468;BME280;57850;52.922;6.256;2023-05-22T09:27:30;101705.66;;;26.51;100.00
12468;BME280;57850;52.922;6.256;2023-05-22T09:29:57;101695.25;;;26.57;100.00
12468;BME280;57850;52.922;6.256;2023-05-22T09:32:24;101682.91;;;26.95;100.00
12468;BME280;57850;52.922;6.256;2023-05-22T09:35:01;101678.69;;;27.21;100.00
12468;BME280;57850;52.922;6.256;2023-05-22T09:37:31;101655.06;;;27.63;100.00
12468;BME280;57850;52.922;6.256;2023-05-22T09:40:03;101634.59;;;27.99;100.00
12468;BME280;57850;52.922;6.256;2023-05-22T09:42:32;101632.88;;;28.07;100.00
12468;BME280;57850;52.922;6.256;2023-05-22T09:45:02;101610.25;;;28.55;100.00
12468;BME280;57850;52.922;6.256;2023-05-22T09:47:28;101611.34;;;28.44;100.00
12468;BME280;57850;52.922;6.256;2023-05-22T09:49:56;101609.50;;;28.62;100.00
12468;BME280;57850;52.922;6.256;2023-05-22T09:52:23;101567.47;;;29.40;100.00
12468;BME280;57850;52.922;6.256;2023-05-22T09:54:51;101566.97;;;29.45;100.00
12468;BME280;57850;52.922;6.256;2023-05-22T09:57:19;101557.03;;;29.71;100.00
12468;BME280;57850;52.922;6.256;2023-05-22T09:59:49;101558.13;;;29.27;100.00
12468;BME280;57850;52.922;6.256;2023-05-22T10:02:19;101578.81;;;29.08;100.00
12468;BME280;57850;52.922;6.256;2023-05-22T10:04:47;101602.00;;;28.66;100.00
12468;BME280;57850;52.922;6.256;2023-05-22T10:07:15;101595.72;;;28.75;100.00
12468;BME280;57850;52.922;6.256;2023-05-22T10:09:44;101592.53;;;28.62;100.00
12468;BME280;57850;52.922;6.256;2023-05-22T10:12:15;101593.63;;;28.69;100.00
12468;BME280;57850;52.922;6.256;2023-05-22T10:14:45;101612.16;;;28.45;100.00
12468;BME280;57850;52.922;6.256;2023-05-22T10:17:13;101580.03;;;29.14;100.00
12468;BME280;57850;52.922;6.256;2023-05-22T10:19:41;101603.06;;;28.73;100.00
12468;BME280;57850;52.922;6.256;2023-05-22T10:22:08;101585.47;;;28.96;100.00
12468;BME280;57850;52.922;6.256;2023-05-22T10:24:39;101554.31;;;29.71;100.00
12468;BME280;57850;52.922;6.256;2023-05-22T10:27:06;101513.94;;;30.21;100.00
12468;BME280;57850;52.922;6.256;2023-05-22T10:29:37;101452.91;;;31.64;100.00
12468;BME280;57850;52.922;6.256;2023-05-22T10:32:11;101457.31;;;31.49;100.00
12468;BME280;57850;52.922;6.256;2023-05-22T10:34:49;101470.41;;;31.29;100.00
12468;BME280;57850;52.922;6.256;2023-05-22T10:37:30;101400.63;;;32.10;100.00
12468;BME280;57850;52.922;6.256;2023-05-22T10:40:00;101381.88;;;32.46;100.00
12468;BME280;57850;52.922;6.256;2023-05-22T10:42:29;101382.06;;;32.45;100.00
12468;BME280;57850;52.922;6.256;2023-05-22T10:44:59;101415.28;;;31.62;100.00
12468;BME280;57850;52.922;6.256;2023-05-22T10:47:26;101449.56;;;31.15;100.00
12468;BME280;57850;52.922;6.256;2023-05-22T10:50:03;101421.66;;;31.69;100.00
12468;BME280;57850;52.922;6.256;2023-05-22T10:52:32;101411.53;;;31.71;100.00
12468;BME280;57850;52.922;6.256;2023-05-22T10:54:59;101429.03;;;31.75;100.00
12468;BME280;57850;52.922;6.256;2023-05-22T10:57:26;101350.00;;;33.00;100.00
12468;BME280;57850;52.922;6.256;2023-05-22T11:00:05;101354.03;;;32.75;100.00
12468;BME280;57850;52.922;6.256;2023-05-22T11:02:38;101377.69;;;32.44;100.00
12468;BME280;57850;52.922;6.256;2023-05-22T11:05:33;101469.31;;;30.83;100.00
12468;BME280;57850;52.922;6.256;2023-05-22T11:11:12;101507.34;;;30.07;100.00
12468;BME280;57850;52.922;6.256;2023-05-22T11:13:39;101479.13;;;30.76;100.00
12468;BME280;57850;52.922;6.256;2023-05-22T11:16:08;101418.16;;;31.61;100.00
12468;BME280;57850;52.922;6.256;2023-05-22T11:18:35;101411.81;;;32.07;100.00
12468;BME280;57850;52.922;6.256;2023-05-22T11:21:04;101407.81;;;32.18;100.00
12468;BME280;57850;52.922;6.256;2023-05-22T11:23:36;101384.47;;;32.40;100.00
12468;BME280;57850;52.922;6.256;2023-05-22T11:26:18;101399.34;;;32.21;100.00
12468;BME280;57850;52.922;6.256;2023-05-22T11:28:48;101392.56;;;32.25;100.00
12468;BME280;57850;52.922;6.256;2023-05-22T11:31:16;101388.22;;;32.39;100.00
12468;BME280;57850;52.922;6.256;2023-05-22T11:33:43;101342.44;;;33.25;100.00
12468;BME280;57850;52.922;6.256;2023-05-22T11:36:12;101329.66;;;33.55;100.00
12468;BME280;57850;52.922;6.256;2023-05-22T11:38:39;101355.16;;;32.80;100.00
12468;BME280;57850;52.922;6.256;2023-05-22T11:41:07;101381.09;;;32.23;100.00
12468;BME280;57850;52.922;6.256;2023-05-22T11:43:34;101375.34;;;32.55;100.00
12468;BME280;57850;52.922;6.256;2023-05-22T11:46:04;101315.72;;;33.79;100.00
12468;BME280;57850;52.922;6.256;2023-05-22T11:48:31;101351.78;;;32.93;100.00
12468;BME280;57850;52.922;6.256;2023-05-22T11:50:58;101369.44;;;32.89;100.00
12468;BME280;57850;52.922;6.256;2023-05-22T11:53:26;101408.75;;;32.25;100.00
12468;BME280;57850;52.922;6.256;2023-05-22T11:55:53;101345.75;;;33.42;100.00
12468;BME280;57850;52.922;6.256;2023-05-22T11:58:20;101289.34;;;34.50;100.00
12468;BME280;57850;52.922;6.256;2023-05-22T12:00:47;101329.16;;;33.66;100.00
12468;BME280;57850;52.922;6.256;2023-05-22T12:03:14;101285.28;;;34.60;100.00
12468;BME280;57850;52.922;6.256;2023-05-22T12:05:44;101290.69;;;34.60;100.00
12468;BME280;57850;52.922;6.256;2023-05-22T12:08:10;101348.00;;;33.38;100.00
12468;BME280;57850;52.922;6.256;2023-05-22T12:10:45;101322.72;;;34.16;100.00
12468;BME280;57850;52.922;6.256;2023-05-22T12:13:12;101299.53;;;34.41;100.00
12468;BME280;57850;52.922;6.256;2023-05-22T12:15:38;101291.84;;;34.44;100.00
12468;BME280;57850;52.922;6.256;2023-05-22T12:18:07;101296.78;;;34.34;100.00
12468;BME280;57850;52.922;6.256;2023-05-22T12:20:33;101316.22;;;34.10;100.00
12468;BME280;57850;52.922;6.256;2023-05-22T12:23:00;101347.53;;;33.56;100.00
12468;BME280;57850;52.922;6.256;2023-05-22T12:25:32;101403.59;;;32.38;100.00
12468;BME280;57850;52.922;6.256;2023-05-22T12:28:02;101359.13;;;33.28;100.00
12468;BME280;57850;52.922;6.256;2023-05-22T12:30:38;101343.06;;;33.63;100.00
12468;BME280;57850;52.922;6.256;2023-05-22T12:33:11;101408.41;;;32.43;100.00
12468;BME280;57850;52.922;6.256;2023-05-22T12:35:38;101474.22;;;31.51;100.00
12468;BME280;57850;52.922;6.256;2023-05-22T12:38:06;101486.22;;;31.40;100.00
12468;BME280;57850;52.922;6.256;2023-05-22T12:40:32;101501.19;;;30.96;100.00
12468;BME280;57850;52.922;6.256;2023-05-22T12:42:59;101525.47;;;30.63;100.00
12468;BME280;57850;52.922;6.256;2023-05-22T12:45:27;101533.53;;;30.55;100.00
12468;BME280;57850;52.922;6.256;2023-05-22T12:47:53;101582.84;;;29.56;100.00